Time;durP1;ratioP1;P1;durP2;ratioP2;P2;SDS_P1;SDS_P2;PMS_P1;PMS_P2;Temp;Humidity;BMP_temperature;BMP_pressure;BME280_temperature;BME280_humidity;BME280_pressure;Samples;Min_cycle;Max_cycle;Signal;HPM_P1;HPM_P2
2022/07/29 00:00:11;;;;;;;0.75;0.40;;;;;;;;;;5052827;28;20435;-85
2022/07/29 00:02:39;;;;;;;0.32;0.32;;;;;;;;;;5031662;28;20044;-84
2022/07/29 00:05:05;;;;;;;0.30;0.30;;;;;;;;;;5052683;28;20051;-85
2022/07/29 00:07:33;;;;;;;0.35;0.35;;;;;;;;;;5042590;28;20503;-87
2022/07/29 00:09:58;;;;;;;2.58;0.30;;;;;;;;;;5049223;28;20116;-82
2022/07/29 00:12:25;;;;;;;0.30;0.30;;;;;;;;;;5048421;28;20417;-86
2022/07/29 00:14:50;;;;;;;1.77;0.40;;;;;;;;;;5036164;28;20039;-87
2022/07/29 00:17:16;;;;;;;1.88;0.35;;;;;;;;;;5052632;28;20028;-84
2022/07/29 00:19:43;;;;;;;1.48;0.40;;;;;;;;;;5052761;28;20044;-85
2022/07/29 00:22:11;;;;;;;0.20;0.20;;;;;;;;;;5047117;28;20507;-86
2022/07/29 00:24:36;;;;;;;2.55;0.40;;;;;;;;;;5056307;28;20052;-82
2022/07/29 00:27:01;;;;;;;0.70;0.63;;;;;;;;;;5056384;28;20095;-84
2022/07/29 00:29:29;;;;;;;0.50;0.50;;;;;;;;;;5053429;28;20036;-82
2022/07/29 00:31:56;;;;;;;1.27;0.35;;;;;;;;;;5050658;28;20044;-86
2022/07/29 00:37:08;;;;;;;0.32;0.20;;;;;;;;;;5056788;28;20113;-87
2022/07/29 00:39:33;;;;;;;1.00;0.45;;;;;;;;;;5054309;28;20438;-83
2022/07/29 00:42:01;;;;;;;1.10;0.38;;;;;;;;;;5057229;28;20029;-87
2022/07/29 00:44:26;;;;;;;0.47;0.47;;;;;;;;;;5055547;28;20047;-87
2022/07/29 00:46:52;;;;;;;0.15;0.15;;;;;;;;;;5054937;28;20099;-85
2022/07/29 00:49:19;;;;;;;0.25;0.25;;;;;;;;;;5053325;28;20056;-85
2022/07/29 00:51:45;;;;;;;0.20;0.20;;;;;;;;;;5051381;28;20469;-87
2022/07/29 00:54:13;;;;;;;0.30;0.30;;;;;;;;;;5059338;28;20029;-83
2022/07/29 00:56:38;;;;;;;7.65;0.32;;;;;;;;;;5056287;28;20104;-86
2022/07/29 00:59:06;;;;;;;0.20;0.20;;;;;;;;;;5054187;28;20116;-87
2022/07/29 01:01:31;;;;;;;0.50;0.30;;;;;;;;;;5055392;28;20480;-84
2022/07/29 01:03:59;;;;;;;0.38;0.32;;;;;;;;;;5051874;28;20107;-85
2022/07/29 01:06:24;;;;;;;4.88;0.52;;;;;;;;;;5051222;28;20105;-86
2022/07/29 01:08:50;;;;;;;0.88;0.30;;;;;;;;;;5056402;28;20418;-83
2022/07/29 01:11:16;;;;;;;0.20;0.20;;;;;;;;;;5052506;28;20035;-87
2022/07/29 01:13:45;;;;;;;2.38;0.88;;;;;;;;;;5055685;28;20102;-86
2022/07/29 01:16:35;;;;;;;1.45;0.47;;;;;;;;;;5055230;28;20025;-84
2022/07/29 01:19:13;;;;;;;0.20;0.20;;;;;;;;;;5052365;28;20167;-85
2022/07/29 01:21:52;;;;;;;0.63;0.28;;;;;;;;;;5053634;28;20174;-84
2022/07/29 01:24:39;;;;;;;2.63;0.47;;;;;;;;;;5055136;28;20431;-83
2022/07/29 01:27:26;;;;;;;1.05;0.20;;;;;;;;;;5053540;28;20370;-84
2022/07/29 01:29:56;;;;;;;0.25;0.25;;;;;;;;;;5058412;28;20048;-83
2022/07/29 01:32:29;;;;;;;0.90;0.20;;;;;;;;;;5056075;28;20047;-87
2022/07/29 01:34:59;;;;;;;1.85;0.75;;;;;;;;;;5055471;28;20021;-84
2022/07/29 01:37:44;;;;;;;0.57;0.35;;;;;;;;;;5053582;28;20110;-86
2022/07/29 01:40:40;;;;;;;0.88;0.20;;;;;;;;;;5056832;28;20021;-83
2022/07/29 01:43:18;;;;;;;0.40;0.30;;;;;;;;;;5013987;28;20068;-87
2022/07/29 01:45:50;;;;;;;0.30;0.30;;;;;;;;;;5043802;28;20029;-87
2022/07/29 01:48:16;;;;;;;;;;;;;;;;;;5052991;28;20029;-86
2022/07/29 01:50:53;;;;;;;3.22;0.70;;;;;;;;;;5053539;28;19927;-87
2022/07/29 01:53:25;;;;;;;0.20;0.20;;;;;;;;;;5053527;28;20056;-87
2022/07/29 01:55:54;;;;;;;0.40;0.35;;;;;;;;;;5052818;28;20139;-85
2022/07/29 01:58:20;;;;;;;1.17;0.35;;;;;;;;;;5037242;28;20021;-86
2022/07/29 02:00:50;;;;;;;0.70;0.52;;;;;;;;;;5052391;28;20040;-86
2022/07/29 02:03:17;;;;;;;1.02;0.63;;;;;;;;;;5055567;28;20036;-84
2022/07/29 02:05:46;;;;;;;0.65;0.65;;;;;;;;;;5051259;28;20121;-84
2022/07/29 02:08:15;;;;;;;0.55;0.38;;;;;;;;;;5054723;28;20430;-86
2022/07/29 02:10:46;;;;;;;0.52;0.50;;;;;;;;;;5034204;28;20082;-83
2022/07/29 02:13:13;;;;;;;0.10;0.10;;;;;;;;;;5054513;28;20596;-83
2022/07/29 02:15:42;;;;;;;0.57;0.40;;;;;;;;;;5053452;28;20473;-86
2022/07/29 02:18:11;;;;;;;2.95;0.38;;;;;;;;;;5036398;28;20374;-84
2022/07/29 02:20:42;;;;;;;2.17;0.50;;;;;;;;;;5052775;28;20024;-85
2022/07/29 02:23:12;;;;;;;0.30;0.30;;;;;;;;;;5060022;28;20036;-84
2022/07/29 02:25:41;;;;;;;0.30;0.30;;;;;;;;;;5055284;28;20037;-86
2022/07/29 02:28:07;;;;;;;0.45;0.40;;;;;;;;;;5054477;28;20178;-85
2022/07/29 02:30:34;;;;;;;1.63;0.70;;;;;;;;;;5054803;28;20487;-85
2022/07/29 02:33:03;;;;;;;0.57;0.57;;;;;;;;;;5051631;28;20028;-86
2022/07/29 02:35:29;;;;;;;1.10;0.30;;;;;;;;;;5048190;28;20112;-85
2022/07/29 02:40:42;;;;;;;0.10;0.10;;;;;;;;;;5042714;28;20645;-86
2022/07/29 02:43:07;;;;;;;0.65;0.43;;;;;;;;;;5049241;28;20037;-86
2022/07/29 02:45:34;;;;;;;6.40;0.35;;;;;;;;;;5034602;28;20025;-86
2022/07/29 02:48:02;;;;;;;0.57;0.38;;;;;;;;;;5053796;28;20024;-86
2022/07/29 02:50:32;;;;;;;1.92;0.40;;;;;;;;;;5052085;28;20644;-87
2022/07/29 02:53:24;;;;;;;1.70;0.70;;;;;;;;;;5051566;28;20059;-86
2022/07/29 02:56:03;;;;;;;2.45;0.75;;;;;;;;;;5044593;28;20060;-86
2022/07/29 02:58:35;;;;;;;0.32;0.20;;;;;;;;;;5037702;28;20033;-86
2022/07/29 03:01:08;;;;;;;0.50;0.30;;;;;;;;;;5049626;28;20033;-87
2022/07/29 03:03:36;;;;;;;0.75;0.63;;;;;;;;;;5046481;28;20021;-87
2022/07/29 03:06:02;;;;;;;0.60;0.30;;;;;;;;;;5053111;28;20039;-85
2022/07/29 03:08:28;;;;;;;1.02;0.93;;;;;;;;;;5052967;28;20442;-80
2022/07/29 03:10:59;;;;;;;4.32;0.40;;;;;;;;;;5067927;28;20028;-85
2022/07/29 03:13:29;;;;;;;0.43;0.20;;;;;;;;;;5053021;28;20029;-86
2022/07/29 03:15:55;;;;;;;2.08;0.40;;;;;;;;;;5052215;28;20024;-85
2022/07/29 03:18:20;;;;;;;0.40;0.35;;;;;;;;;;5053219;28;20442;-86
2022/07/29 03:20:45;;;;;;;1.00;0.38;;;;;;;;;;5052700;28;20031;-84
2022/07/29 03:23:16;;;;;;;0.25;0.25;;;;;;;;;;5054160;28;20032;-86
2022/07/29 03:25:45;;;;;;;0.20;0.20;;;;;;;;;;5059823;28;20041;-84
2022/07/29 03:28:10;;;;;;;0.38;0.30;;;;;;;;;;5053644;28;20025;-83
2022/07/29 03:30:38;;;;;;;0.45;0.30;;;;;;;;;;5053888;28;20102;-83
2022/07/29 03:33:03;;;;;;;0.77;0.28;;;;;;;;;;5052807;28;20330;-80
2022/07/29 03:35:31;;;;;;;4.65;0.77;;;;;;;;;;5042231;28;20112;-83
2022/07/29 03:37:56;;;;;;;1.13;0.70;;;;;;;;;;5052570;28;20044;-81
2022/07/29 03:40:26;;;;;;;0.25;0.20;;;;;;;;;;5054167;28;20060;-77
2022/07/29 03:42:54;;;;;;;0.30;0.30;;;;;;;;;;5051778;28;20030;-80
2022/07/29 03:45:20;;;;;;;0.30;0.30;;;;;;;;;;5052156;28;20343;-80
2022/07/29 03:47:49;;;;;;;0.98;0.30;;;;;;;;;;5052540;28;20438;-81
2022/07/29 03:50:18;;;;;;;2.20;0.40;;;;;;;;;;5052258;28;20028;-79
2022/07/29 03:52:43;;;;;;;0.35;0.22;;;;;;;;;;5035949;28;20020;-79
2022/07/29 03:55:09;;;;;;;0.22;0.22;;;;;;;;;;5066549;28;20036;-79
2022/07/29 03:57:37;;;;;;;0.98;0.35;;;;;;;;;;5053006;28;20032;-80
2022/07/29 04:00:06;;;;;;;0.40;0.40;;;;;;;;;;5048253;28;20032;-77
2022/07/29 04:02:32;;;;;;;1.20;0.40;;;;;;;;;;5051108;28;20029;-81
2022/07/29 04:05:00;;;;;;;0.63;0.43;;;;;;;;;;5034419;28;20029;-81
2022/07/29 04:07:30;;;;;;;1.30;0.80;;;;;;;;;;5052360;28;20029;-80
2022/07/29 04:09:56;;;;;;;0.25;0.22;;;;;;;;;;5045102;28;20036;-80
2022/07/29 04:12:21;;;;;;;0.57;0.57;;;;;;;;;;5051076;28;20044;-81
2022/07/29 04:14:49;;;;;;;0.20;0.20;;;;;;;;;;5054101;28;20087;-80
2022/07/29 04:17:15;;;;;;;0.40;0.35;;;;;;;;;;5049079;28;20520;-81
2022/07/29 04:19:43;;;;;;;0.40;0.40;;;;;;;;;;5049800;28;20025;-81
2022/07/29 04:22:08;;;;;;;0.52;0.52;;;;;;;;;;5048048;28;20029;-81
2022/07/29 04:24:34;;;;;;;0.43;0.28;;;;;;;;;;5052478;28;20036;-82
2022/07/29 04:27:04;;;;;;;0.73;0.73;;;;;;;;;;5035540;28;20036;-81
2022/07/29 04:29:29;;;;;;;0.93;0.65;;;;;;;;;;5053467;28;20453;-82
2022/07/29 04:31:55;;;;;;;0.65;0.43;;;;;;;;;;5053028;28;20029;-80
2022/07/29 04:34:20;;;;;;;0.35;0.30;;;;;;;;;;5050606;28;20032;-80
2022/07/29 04:36:50;;;;;;;2.13;0.32;;;;;;;;;;5052837;28;20048;-81
2022/07/29 04:39:19;;;;;;;0.43;0.25;;;;;;;;;;5047723;28;20029;-81
2022/07/29 04:41:45;;;;;;;1.05;0.68;;;;;;;;;;5051656;28;20106;-81
2022/07/29 04:44:11;;;;;;;0.17;0.17;;;;;;;;;;5049268;28;20017;-82
2022/07/29 04:46:38;;;;;;;1.05;0.30;;;;;;;;;;5051300;28;20033;-81
2022/07/29 04:49:04;;;;;;;0.28;0.20;;;;;;;;;;5047745;28;20036;-80
2022/07/29 04:51:29;;;;;;;0.60;0.45;;;;;;;;;;5053630;28;20025;-80
2022/07/29 04:53:55;;;;;;;2.05;0.50;;;;;;;;;;5054245;28;20044;-81
2022/07/29 04:56:23;;;;;;;0.38;0.30;;;;;;;;;;5043867;28;20033;-79
2022/07/29 04:58:48;;;;;;;2.95;0.88;;;;;;;;;;5048947;28;20040;-84
2022/07/29 05:01:14;;;;;;;2.47;0.50;;;;;;;;;;5050049;28;20041;-84
2022/07/29 05:03:39;;;;;;;0.15;0.13;;;;;;;;;;5050643;28;20016;-83
2022/07/29 05:06:05;;;;;;;0.30;0.22;;;;;;;;;;5047128;28;20106;-84
2022/07/29 05:08:30;;;;;;;0.38;0.35;;;;;;;;;;5053118;28;20032;-83
2022/07/29 05:10:55;;;;;;;0.82;0.60;;;;;;;;;;5051912;28;20419;-82
2022/07/29 05:13:21;;;;;;;0.40;0.40;;;;;;;;;;5049106;28;20032;-81
2022/07/29 05:15:46;;;;;;;0.73;0.47;;;;;;;;;;5053243;28;20140;-80
2022/07/29 05:18:11;;;;;;;0.80;0.35;;;;;;;;;;5057260;28;20036;-81
2022/07/29 05:20:39;;;;;;;3.65;0.30;;;;;;;;;;5055816;28;20029;-80
2022/07/29 05:23:04;;;;;;;3.40;0.40;;;;;;;;;;5056893;28;20348;-80
2022/07/29 05:25:32;;;;;;;0.50;0.43;;;;;;;;;;5055984;28;20020;-83
2022/07/29 05:28:00;;;;;;;0.40;0.40;;;;;;;;;;5056880;28;20029;-82
2022/07/29 05:30:25;;;;;;;0.55;0.45;;;;;;;;;;5054775;28;20068;-83
2022/07/29 05:32:51;;;;;;;0.35;0.20;;;;;;;;;;5056643;28;20071;-83
2022/07/29 05:35:19;;;;;;;0.65;0.52;;;;;;;;;;5056325;28;20099;-83
2022/07/29 05:37:44;;;;;;;0.55;0.55;;;;;;;;;;5037415;28;20029;-83
2022/07/29 05:40:10;;;;;;;2.10;0.85;;;;;;;;;;5053353;28;20032;-83
2022/07/29 05:42:35;;;;;;;0.30;0.30;;;;;;;;;;5056758;28;20031;-83
2022/07/29 05:45:01;;;;;;;2.13;0.25;;;;;;;;;;5056254;28;20366;-81
2022/07/29 05:47:27;;;;;;;0.38;0.38;;;;;;;;;;5055906;28;20084;-83
2022/07/29 05:49:52;;;;;;;0.90;0.50;;;;;;;;;;5055474;28;20041;-82
2022/07/29 05:52:20;;;;;;;1.38;0.38;;;;;;;;;;5055253;28;20025;-82
2022/07/29 05:54:48;;;;;;;1.85;0.52;;;;;;;;;;5053432;28;20518;-83
2022/07/29 05:57:23;;;;;;;1.95;0.32;;;;;;;;;;5054917;28;20028;-83
2022/07/29 05:59:49;;;;;;;0.50;0.30;;;;;;;;;;5052342;28;20037;-83
2022/07/29 06:02:15;;;;;;;0.30;0.20;;;;;;;;;;5053087;28;20056;-83
2022/07/29 06:04:40;;;;;;;0.30;0.30;;;;;;;;;;5038511;28;20435;-83
2022/07/29 06:07:08;;;;;;;0.90;0.90;;;;;;;;;;5056735;28;20044;-82
2022/07/29 06:09:36;;;;;;;0.28;0.28;;;;;;;;;;5056016;28;20359;-82
2022/07/29 06:12:01;;;;;;;0.47;0.35;;;;;;;;;;5059459;28;20035;-83
2022/07/29 06:14:28;;;;;;;3.22;0.63;;;;;;;;;;5053930;28;20029;-80
2022/07/29 06:16:58;;;;;;;0.50;0.40;;;;;;;;;;5056027;28;20036;-82
2022/07/29 06:19:23;;;;;;;0.22;0.22;;;;;;;;;;5053271;28;20342;-83
2022/07/29 06:21:48;;;;;;;0.20;0.20;;;;;;;;;;5054499;28;20028;-79
2022/07/29 06:24:16;;;;;;;2.95;0.50;;;;;;;;;;5049526;28;20025;-83
2022/07/29 06:26:47;;;;;;;2.47;0.65;;;;;;;;;;5054812;28;20482;-82
2022/07/29 06:29:12;;;;;;;0.30;0.30;;;;;;;;;;5055636;28;20041;-82
2022/07/29 06:31:38;;;;;;;0.38;0.38;;;;;;;;;;5055623;28;20106;-83
2022/07/29 06:34:06;;;;;;;0.40;0.40;;;;;;;;;;5053489;28;20110;-82
2022/07/29 06:36:34;;;;;;;0.47;0.40;;;;;;;;;;5069487;28;20159;-82
2022/07/29 06:38:59;;;;;;;0.32;0.32;;;;;;;;;;5055018;28;20028;-82
2022/07/29 06:41:25;;;;;;;0.25;0.25;;;;;;;;;;5055751;28;20451;-82
2022/07/29 06:43:51;;;;;;;0.25;0.25;;;;;;;;;;5047425;28;20029;-83
2022/07/29 06:46:18;;;;;;;0.50;0.50;;;;;;;;;;5037870;28;20060;-83
2022/07/29 06:48:44;;;;;;;1.00;0.32;;;;;;;;;;5053594;28;20039;-82
2022/07/29 06:51:12;;;;;;;0.52;0.52;;;;;;;;;;5054700;28;20025;-82
2022/07/29 06:53:38;;;;;;;0.40;0.20;;;;;;;;;;5056707;28;20107;-81
2022/07/29 06:56:09;;;;;;;0.82;0.50;;;;;;;;;;5054450;28;20099;-82
2022/07/29 06:58:35;;;;;;;0.85;0.85;;;;;;;;;;5049219;28;20652;-82
2022/07/29 07:01:02;;;;;;;0.68;0.68;;;;;;;;;;5053936;28;20124;-82
2022/07/29 07:03:30;;;;;;;1.70;0.63;;;;;;;;;;5055221;28;20028;-82
2022/07/29 07:05:56;;;;;;;0.68;0.60;;;;;;;;;;5037779;28;20300;-81
2022/07/29 07:08:22;;;;;;;4.22;0.50;;;;;;;;;;5051695;28;20037;-82
2022/07/29 07:10:48;;;;;;;0.77;0.30;;;;;;;;;;5054821;28;20099;-80
2022/07/29 07:13:14;;;;;;;0.85;0.63;;;;;;;;;;5054495;28;20041;-80
2022/07/29 07:15:39;;;;;;;0.50;0.43;;;;;;;;;;5054176;28;20021;-83
2022/07/29 07:18:05;;;;;;;0.93;0.70;;;;;;;;;;5048793;28;20029;-81
2022/07/29 07:20:32;;;;;;;0.80;0.40;;;;;;;;;;5052988;28;20347;-84
2022/07/29 07:22:57;;;;;;;1.33;0.77;;;;;;;;;;5031915;28;20024;-84
2022/07/29 07:25:23;;;;;;;0.98;0.57;;;;;;;;;;5049797;28;20102;-88
2022/07/29 07:27:50;;;;;;;0.63;0.52;;;;;;;;;;5053850;28;20064;-85
2022/07/29 07:34:35;;;;;;;0.82;0.57;;;;;;;;;;5053833;28;20477;-88
2022/07/29 07:47:59;;;;;;;0.85;0.47;;;;;;;;;;4822779;29;20038;-85
2022/07/29 07:50:55;;;;;;;0.77;0.77;;;;;;;;;;4822374;29;20113;-81
2022/07/29 07:53:21;;;;;;;1.00;0.40;;;;;;;;;;4822600;29;20118;-81
2022/07/29 07:55:49;;;;;;;0.65;0.65;;;;;;;;;;4825132;29;20388;-81
2022/07/29 07:58:14;;;;;;;0.65;0.40;;;;;;;;;;4826405;29;20074;-81
2022/07/29 08:00:41;;;;;;;0.60;0.30;;;;;;;;;;4829121;29;20049;-83
2022/07/29 08:03:08;;;;;;;0.43;0.30;;;;;;;;;;4828736;29;20482;-82
2022/07/29 08:05:33;;;;;;;0.22;0.22;;;;;;;;;;4827358;29;20053;-83
2022/07/29 08:07:59;;;;;;;0.55;0.52;;;;;;;;;;4814682;29;20042;-84
2022/07/29 08:13:11;;;;;;;0.20;0.20;;;;;;;;;;4835103;29;20060;-78
2022/07/29 08:15:38;;;;;;;0.90;0.50;;;;;;;;;;4860404;29;20029;-81
2022/07/29 08:18:04;;;;;;;0.73;0.63;;;;;;;;;;4876090;29;20101;-83
2022/07/29 08:20:32;;;;;;;1.70;0.50;;;;;;;;;;4873000;29;20037;-82
2022/07/29 08:22:58;;;;;;;1.45;0.70;;;;;;;;;;4890216;28;20051;-80
2022/07/29 08:25:24;;;;;;;3.13;0.80;;;;;;;;;;5043148;28;20037;-82
2022/07/29 08:27:49;;;;;;;0.60;0.50;;;;;;;;;;5054126;28;20028;-82
2022/07/29 08:30:14;;;;;;;0.68;0.68;;;;;;;;;;5053337;28;20033;-82
2022/07/29 08:32:40;;;;;;;2.38;1.23;;;;;;;;;;5049310;28;20025;-82
2022/07/29 08:35:05;;;;;;;1.33;0.60;;;;;;;;;;5053998;28;20461;-83
2022/07/29 08:37:31;;;;;;;0.88;0.50;;;;;;;;;;5053404;28;20112;-81
2022/07/29 08:39:56;;;;;;;0.40;0.40;;;;;;;;;;5054025;28;20117;-81
2022/07/29 08:42:21;;;;;;;1.23;0.65;;;;;;;;;;5054125;28;20115;-81
2022/07/29 08:44:50;;;;;;;0.82;0.63;;;;;;;;;;5055630;28;20043;-81
2022/07/29 08:47:18;;;;;;;0.77;0.45;;;;;;;;;;5057126;28;20298;-83
2022/07/29 08:49:48;;;;;;;0.95;0.85;;;;;;;;;;5056871;28;20092;-83
2022/07/29 08:52:16;;;;;;;0.55;0.40;;;;;;;;;;5055357;28;20377;-82
2022/07/29 08:54:48;;;;;;;1.17;0.75;;;;;;;;;;5055136;28;20017;-81
2022/07/29 08:57:14;;;;;;;0.73;0.73;;;;;;;;;;5056570;28;20029;-81
2022/07/29 08:59:42;;;;;;;0.35;0.35;;;;;;;;;;5057724;28;20082;-82
2022/07/29 09:02:19;;;;;;;1.13;0.50;;;;;;;;;;5056126;28;20420;-81
2022/07/29 09:04:46;;;;;;;0.28;0.25;;;;;;;;;;5049382;28;20516;-82
2022/07/29 09:07:17;;;;;;;6.05;1.00;;;;;;;;;;5051568;28;20104;-84
2022/07/29 09:09:43;;;;;;;0.70;0.40;;;;;;;;;;5050226;28;20115;-83
2022/07/29 09:12:12;;;;;;;0.63;0.45;;;;;;;;;;5058414;28;20446;-82
2022/07/29 09:14:38;;;;;;;0.40;0.40;;;;;;;;;;5055112;28;20452;-83
2022/07/29 09:17:03;;;;;;;5.43;0.70;;;;;;;;;;5071048;28;20085;-81
2022/07/29 09:19:36;;;;;;;2.42;0.50;;;;;;;;;;5056970;28;20029;-81
2022/07/29 09:22:06;;;;;;;0.40;0.40;;;;;;;;;;5055731;28;20025;-82
2022/07/29 09:24:34;;;;;;;3.42;0.70;;;;;;;;;;5055381;28;20060;-82
2022/07/29 09:27:00;;;;;;;1.38;0.65;;;;;;;;;;5057640;28;20029;-81
2022/07/29 09:29:28;;;;;;;1.92;1.15;;;;;;;;;;5055611;28;20029;-82
2022/07/29 09:31:57;;;;;;;2.15;1.02;;;;;;;;;;5053489;28;20052;-81
2022/07/29 09:34:31;;;;;;;1.02;0.93;;;;;;;;;;5054826;28;20021;-81
2022/07/29 09:36:56;;;;;;;1.35;0.82;;;;;;;;;;5052277;28;20021;-84
2022/07/29 09:39:30;;;;;;;0.57;0.50;;;;;;;;;;5054639;28;20032;-84
2022/07/29 09:41:57;;;;;;;0.85;0.40;;;;;;;;;;5047884;28;20060;-83
2022/07/29 09:44:29;;;;;;;0.60;0.43;;;;;;;;;;5055122;28;20850;-80
2022/07/29 09:50:05;;;;;;;2.47;0.60;;;;;;;;;;5063032;28;20044;-81
2022/07/29 09:52:56;;;;;;;0.75;0.75;;;;;;;;;;5036970;28;20439;-81
2022/07/29 09:55:21;;;;;;;2.83;2.45;;;;;;;;;;5038553;28;20020;-81
2022/07/29 09:57:49;;;;;;;3.58;0.70;;;;;;;;;;5034455;28;20017;-82
2022/07/29 10:00:19;;;;;;;1.02;0.70;;;;;;;;;;5052911;28;20033;-82
2022/07/29 10:02:49;;;;;;;1.38;1.10;;;;;;;;;;5049670;28;20035;-82
2022/07/29 10:05:28;;;;;;;2.58;0.60;;;;;;;;;;5030645;28;20549;-81
2022/07/29 10:08:10;;;;;;;3.45;0.95;;;;;;;;;;5054168;28;20040;-81
2022/07/29 10:10:39;;;;;;;1.25;0.50;;;;;;;;;;5038837;28;20017;-84
2022/07/29 10:13:50;;;;;;;1.88;0.73;;;;;;;;;;5056336;28;20087;-84
2022/07/29 10:16:24;;;;;;;0.32;0.30;;;;;;;;;;4967794;28;20118;-82
2022/07/29 10:18:50;;;;;;;0.77;0.77;;;;;;;;;;5063297;28;20036;-81
2022/07/29 10:21:16;;;;;;;2.05;0.77;;;;;;;;;;5049941;28;20039;-83
2022/07/29 10:23:45;;;;;;;0.77;0.77;;;;;;;;;;5033907;28;20033;-85
2022/07/29 10:26:10;;;;;;;4.38;1.10;;;;;;;;;;5039529;28;20032;-82
2022/07/29 10:28:36;;;;;;;0.50;0.50;;;;;;;;;;5054967;28;20017;-82
2022/07/29 10:31:06;;;;;;;1.98;1.13;;;;;;;;;;5037846;28;20040;-83
2022/07/29 10:33:38;;;;;;;0.68;0.43;;;;;;;;;;5037611;28;20389;-85
2022/07/29 10:36:25;;;;;;;1.63;1.25;;;;;;;;;;5048897;28;20029;-79
2022/07/29 10:39:02;;;;;;;1.00;0.60;;;;;;;;;;5048175;28;20440;-85
2022/07/29 10:41:45;;;;;;;0.88;0.88;;;;;;;;;;5035463;28;20095;-82
2022/07/29 10:44:22;;;;;;;1.75;0.75;;;;;;;;;;5052408;28;20036;-82
2022/07/29 10:46:47;;;;;;;0.75;0.55;;;;;;;;;;5038703;28;20080;-85
2022/07/29 10:49:17;;;;;;;0.88;0.47;;;;;;;;;;5046888;28;20387;-83
2022/07/29 10:52:01;;;;;;;2.08;1.42;;;;;;;;;;5054622;28;20031;-83
2022/07/29 10:54:35;;;;;;;1.35;1.10;;;;;;;;;;5050404;28;20025;-82
2022/07/29 10:57:20;;;;;;;3.30;1.00;;;;;;;;;;5051749;28;20130;-86
2022/07/29 11:00:12;;;;;;;3.08;1.17;;;;;;;;;;5055375;28;20403;-81
2022/07/29 11:02:42;;;;;;;3.25;0.75;;;;;;;;;;5024616;28;20045;-84
2022/07/29 11:05:08;;;;;;;0.50;0.50;;;;;;;;;;5054651;28;20020;-80
2022/07/29 11:15:04;;;;;;;0.90;0.63;;;;;;;;;;5056309;28;20496;-82
2022/07/29 11:24:35;;;;;;;1.90;1.05;;;;;;;;;;4997205;28;20034;-79
2022/07/29 11:27:17;;;;;;;2.20;0.60;;;;;;;;;;5003268;28;20033;-80
2022/07/29 11:29:55;;;;;;;0.67;0.67;;;;;;;;;;4994953;28;20038;-78
2022/07/29 11:32:21;;;;;;;1.13;1.00;;;;;;;;;;5002463;28;20036;-80
2022/07/29 11:34:50;;;;;;;4.07;1.15;;;;;;;;;;4994124;28;20118;-80
2022/07/29 11:37:19;;;;;;;0.70;0.60;;;;;;;;;;5008790;28;20033;-80
2022/07/29 11:39:56;;;;;;;1.33;0.98;;;;;;;;;;5007632;28;20574;-81
2022/07/29 11:42:24;;;;;;;1.60;1.13;;;;;;;;;;5012237;28;20033;-80
2022/07/29 11:44:56;;;;;;;4.35;1.55;;;;;;;;;;5012569;28;20084;-81
2022/07/29 11:47:25;;;;;;;2.60;0.95;;;;;;;;;;5012641;28;20042;-81
2022/07/29 11:49:51;;;;;;;1.25;0.52;;;;;;;;;;5011038;28;20042;-80
2022/07/29 11:52:17;;;;;;;1.92;0.77;;;;;;;;;;5009357;28;20022;-81
2022/07/29 11:54:43;;;;;;;0.50;0.38;;;;;;;;;;4978196;28;20053;-78
2022/07/29 11:57:11;;;;;;;1.23;0.80;;;;;;;;;;5000873;28;20037;-79
2022/07/29 11:59:41;;;;;;;2.28;0.40;;;;;;;;;;4988469;28;20997;-78
2022/07/29 12:02:07;;;;;;;0.50;0.50;;;;;;;;;;5030801;28;20592;-80
2022/07/29 12:04:53;;;;;;;2.47;1.13;;;;;;;;;;5034332;28;20182;-80
2022/07/29 12:07:30;;;;;;;1.73;1.10;;;;;;;;;;5043240;28;20439;-79
2022/07/29 12:09:56;;;;;;;6.53;0.60;;;;;;;;;;5063319;28;20102;-81
2022/07/29 12:12:24;;;;;;;0.40;0.40;;;;;;;;;;5029017;28;20445;-78
2022/07/29 12:14:51;;;;;;;1.00;0.85;;;;;;;;;;5045712;28;20116;-85
2022/07/29 12:17:32;;;;;;;11.80;0.60;;;;;;;;;;5045859;28;20124;-84
2022/07/29 12:19:59;;;;;;;1.75;1.05;;;;;;;;;;5051003;28;20051;-83
2022/07/29 12:22:33;;;;;;;0.80;0.80;;;;;;;;;;5049856;28;20021;-84
2022/07/29 12:25:03;;;;;;;0.70;0.40;;;;;;;;;;5051543;28;20087;-83
2022/07/29 12:27:31;;;;;;;1.08;0.65;;;;;;;;;;5049616;28;20039;-79
2022/07/29 12:30:05;;;;;;;2.55;0.80;;;;;;;;;;5054541;28;20039;-86
2022/07/29 12:32:50;;;;;;;0.57;0.38;;;;;;;;;;5053528;28;20025;-81
2022/07/29 12:35:18;;;;;;;1.52;0.70;;;;;;;;;;5050221;28;20324;-79
2022/07/29 12:37:58;;;;;;;0.45;0.45;;;;;;;;;;5054956;28;20017;-82
2022/07/29 12:40:29;;;;;;;0.28;0.25;;;;;;;;;;5036331;28;20031;-82
2022/07/29 12:43:09;;;;;;;2.88;1.15;;;;;;;;;;5054043;28;20051;-83
2022/07/29 12:45:39;;;;;;;0.73;0.55;;;;;;;;;;5050384;28;20020;-78
2022/07/29 12:48:33;;;;;;;0.82;0.47;;;;;;;;;;5048390;28;20036;-85
2022/07/29 12:51:09;;;;;;;0.95;0.65;;;;;;;;;;5054509;28;20040;-82
2022/07/29 12:53:36;;;;;;;0.63;0.63;;;;;;;;;;5052848;28;20108;-85
2022/07/29 12:56:03;;;;;;;0.63;0.40;;;;;;;;;;5052366;28;20016;-83
2022/07/29 12:58:39;;;;;;;0.57;0.50;;;;;;;;;;5049295;28;20456;-83
2022/07/29 13:01:12;;;;;;;0.68;0.45;;;;;;;;;;5044333;28;20343;-86
2022/07/29 13:07:54;;;;;;;1.10;0.60;;;;;;;;;;5066954;28;20095;-81
2022/07/29 13:11:06;;;;;;;0.70;0.35;;;;;;;;;;5057705;28;20029;-86
2022/07/29 13:13:59;;;;;;;0.73;0.45;;;;;;;;;;5052688;28;20561;-81
2022/07/29 13:16:25;;;;;;;1.75;0.65;;;;;;;;;;5048798;28;20114;-83
2022/07/29 13:19:06;;;;;;;1.00;0.68;;;;;;;;;;5052650;28;20422;-86
2022/07/29 13:21:45;;;;;;;0.60;0.45;;;;;;;;;;5048623;28;20028;-84
2022/07/29 13:24:11;;;;;;;0.65;0.65;;;;;;;;;;5050227;28;20033;-90
2022/07/29 13:26:40;;;;;;;0.88;0.70;;;;;;;;;;5055321;28;20029;-89
2022/07/29 13:29:05;;;;;;;0.70;0.50;;;;;;;;;;5053659;28;20025;-82
2022/07/29 13:31:31;;;;;;;1.92;0.90;;;;;;;;;;5053043;28;20036;-85
2022/07/29 13:33:56;;;;;;;1.52;0.80;;;;;;;;;;5058571;28;20052;-81
2022/07/29 13:36:21;;;;;;;0.65;0.60;;;;;;;;;;5067554;28;20255;-83
2022/07/29 13:38:47;;;;;;;3.13;1.15;;;;;;;;;;5078131;28;20033;-83
2022/07/29 13:41:12;;;;;;;0.85;0.55;;;;;;;;;;5044121;28;20605;-86
2022/07/29 13:43:38;;;;;;;0.40;0.40;;;;;;;;;;5057081;28;20036;-85
2022/07/29 13:46:03;;;;;;;1.17;0.57;;;;;;;;;;5052491;28;20025;-85
2022/07/29 13:48:30;;;;;;;0.65;0.65;;;;;;;;;;5037417;28;20055;-83
2022/07/29 13:51:18;;;;;;;0.60;0.60;;;;;;;;;;5043091;28;20026;-83
2022/07/29 13:57:07;;;;;;;2.33;1.17;;;;;;;;;;5053936;28;20044;-83
2022/07/29 13:59:32;;;;;;;0.38;0.38;;;;;;;;;;5051091;28;20041;-84
2022/07/29 14:02:02;;;;;;;1.40;0.80;;;;;;;;;;5048874;28;20056;-79
2022/07/29 14:04:28;;;;;;;0.20;0.20;;;;;;;;;;5051671;28;20029;-81
2022/07/29 14:06:53;;;;;;;0.70;0.43;;;;;;;;;;5051144;28;20135;-80
2022/07/29 14:09:19;;;;;;;0.73;0.60;;;;;;;;;;5044396;28;20089;-80
2022/07/29 14:11:45;;;;;;;1.35;1.25;;;;;;;;;;5032286;28;20028;-81
2022/07/29 14:14:11;;;;;;;0.75;0.73;;;;;;;;;;5056350;28;20062;-79
2022/07/29 14:16:36;;;;;;;0.75;0.75;;;;;;;;;;5049855;28;20397;-81
2022/07/29 14:19:02;;;;;;;0.40;0.40;;;;;;;;;;5058928;28;20276;-80
2022/07/29 14:21:28;;;;;;;1.35;0.35;;;;;;;;;;5048092;28;20025;-81
2022/07/29 14:24:02;;;;;;;0.50;0.43;;;;;;;;;;5045519;28;20021;-78
2022/07/29 14:26:27;;;;;;;0.40;0.40;;;;;;;;;;5054307;28;20033;-74
2022/07/29 14:28:53;;;;;;;0.60;0.47;;;;;;;;;;5043605;28;20037;-77
2022/07/29 14:31:18;;;;;;;0.88;0.73;;;;;;;;;;5049241;28;20029;-77
2022/07/29 14:33:48;;;;;;;2.10;0.77;;;;;;;;;;5047963;28;20044;-75
2022/07/29 14:36:16;;;;;;;0.52;0.52;;;;;;;;;;5046867;28;20025;-78
2022/07/29 14:38:44;;;;;;;1.50;1.17;;;;;;;;;;5051026;28;20033;-76
2022/07/29 14:41:09;;;;;;;0.50;0.38;;;;;;;;;;5046217;28;20036;-77
2022/07/29 14:43:37;;;;;;;2.08;0.70;;;;;;;;;;5051150;28;20049;-77
2022/07/29 14:46:02;;;;;;;0.30;0.30;;;;;;;;;;5051480;28;20032;-77
2022/07/29 14:48:27;;;;;;;0.40;0.40;;;;;;;;;;5049021;28;20029;-78
2022/07/29 14:50:54;;;;;;;1.02;0.55;;;;;;;;;;5047209;28;20028;-77
2022/07/29 14:53:24;;;;;;;1.13;0.50;;;;;;;;;;5030553;28;20416;-78
2022/07/29 14:55:50;;;;;;;0.30;0.30;;;;;;;;;;5051675;28;20068;-78
2022/07/29 14:58:15;;;;;;;3.80;0.65;;;;;;;;;;5052866;28;20075;-78
2022/07/29 15:00:40;;;;;;;1.67;0.98;;;;;;;;;;5054355;28;20079;-78
2022/07/29 15:03:14;;;;;;;1.88;1.23;;;;;;;;;;5049507;28;20025;-77
2022/07/29 15:05:39;;;;;;;1.45;1.08;;;;;;;;;;5050797;28;20078;-78
2022/07/29 15:08:07;;;;;;;1.60;1.15;;;;;;;;;;5046276;28;20526;-79
2022/07/29 15:10:33;;;;;;;1.33;1.13;;;;;;;;;;5054079;28;20032;-78
2022/07/29 15:12:59;;;;;;;2.72;1.17;;;;;;;;;;5047209;28;20101;-79
2022/07/29 15:15:25;;;;;;;0.82;0.73;;;;;;;;;;5045909;28;20036;-80
2022/07/29 15:17:50;;;;;;;0.45;0.32;;;;;;;;;;5049257;28;20012;-79
2022/07/29 15:20:18;;;;;;;0.35;0.35;;;;;;;;;;5048925;28;20033;-79
2022/07/29 15:22:45;;;;;;;0.68;0.60;;;;;;;;;;5051307;28;20036;-79
2022/07/29 15:25:11;;;;;;;0.95;0.60;;;;;;;;;;5053454;28;20445;-78
2022/07/29 15:27:36;;;;;;;0.70;0.70;;;;;;;;;;5047963;28;20040;-79
2022/07/29 15:30:02;;;;;;;1.25;0.80;;;;;;;;;;5044070;28;20450;-78
2022/07/29 15:32:27;;;;;;;0.47;0.47;;;;;;;;;;5037264;28;20159;-78
2022/07/29 15:34:55;;;;;;;1.23;0.93;;;;;;;;;;5051751;28;20032;-78
2022/07/29 15:37:24;;;;;;;0.52;0.50;;;;;;;;;;5050295;28;20029;-78
2022/07/29 15:39:49;;;;;;;0.60;0.60;;;;;;;;;;5058568;28;20089;-77
2022/07/29 15:42:17;;;;;;;1.27;0.60;;;;;;;;;;5049798;28;20037;-78